createdAt,value
2022-11-02T00:01:03.081Z,62.70
2022-11-02T00:03:31.096Z,63.97
2022-11-02T00:05:59.052Z,63.63
2022-11-02T00:08:28.404Z,63.13
2022-11-02T00:10:56.464Z,63.80
2022-11-02T00:13:24.524Z,62.57
2022-11-02T00:15:52.540Z,62.63
2022-11-02T00:18:20.833Z,64.17
2022-11-02T00:20:49.255Z,62.83
2022-11-02T00:23:17.422Z,62.57
2022-11-02T00:25:50.030Z,62.13
2022-11-02T00:28:18.148Z,63.13
2022-11-02T00:30:46.879Z,63.40
2022-11-02T00:33:14.834Z,61.03
2022-11-02T00:35:45.066Z,60.40
2022-11-02T00:38:13.132Z,59.47
2022-11-02T00:40:41.131Z,59.97
2022-11-02T00:43:10.503Z,60.27
2022-11-02T00:45:38.674Z,61.30
2022-11-02T00:48:07.538Z,61.50
2022-11-02T00:50:35.733Z,62.13
2022-11-02T00:53:04.466Z,60.63
2022-11-02T00:55:32.467Z,60.70
2022-11-02T00:58:04.506Z,62.63
2022-11-02T01:00:34.119Z,60.60
2022-11-02T01:03:02.552Z,60.63
2022-11-02T01:05:31.162Z,60.30
2022-11-02T01:07:59.237Z,63.27
2022-11-02T01:10:27.761Z,64.33
2022-11-02T01:12:55.697Z,63.73
2022-11-02T01:15:23.740Z,64.67
2022-11-02T01:17:53.620Z,65.70
2022-11-02T01:20:21.702Z,66.40
2022-11-02T01:22:49.637Z,66.97
2022-11-02T01:25:17.828Z,67.47
2022-11-02T01:27:46.109Z,66.73
2022-11-02T01:30:14.972Z,66.30
2022-11-02T01:32:45.009Z,66.07
2022-11-02T01:35:14.419Z,67.50
2022-11-02T01:37:42.394Z,66.80
2022-11-02T01:40:11.526Z,66.40
2022-11-02T01:42:39.660Z,66.33
2022-11-02T01:45:08.618Z,66.53
2022-11-02T01:47:39.695Z,64.57
2022-11-02T01:50:13.360Z,66.30
2022-11-02T01:52:43.405Z,65.57
2022-11-02T01:55:14.872Z,65.07
2022-11-02T01:57:46.815Z,65.20
2022-11-02T02:00:17.522Z,63.93
2022-11-02T02:02:52.549Z,63.53
2022-11-02T02:05:23.678Z,64.20
2022-11-02T02:07:54.807Z,62.27
2022-11-02T02:10:23.146Z,62.43
2022-11-02T02:12:51.514Z,61.73
2022-11-02T02:15:23.205Z,59.90
2022-11-02T02:17:57.099Z,62.67
2022-11-02T02:20:41.242Z,61.03
2022-11-02T02:23:40.158Z,59.83
2022-11-02T02:26:43.339Z,60.33
2022-11-02T02:29:20.549Z,60.83
2022-11-02T02:31:56.866Z,59.30
2022-11-02T02:34:31.029Z,59.17
2022-11-02T02:37:04.884Z,59.00
2022-11-02T02:39:42.069Z,56.77
2022-11-02T02:42:17.347Z,57.43
2022-11-02T02:44:55.823Z,56.70
2022-11-02T02:47:29.152Z,55.90
2022-11-02T02:50:04.788Z,56.30
2022-11-02T02:52:36.021Z,56.30
2022-11-02T02:55:06.886Z,55.43
2022-11-02T02:57:37.391Z,56.00
2022-11-02T03:00:14.413Z,54.47
2022-11-02T03:02:44.779Z,56.20
2022-11-02T03:05:25.197Z,56.90
2022-11-02T03:07:53.996Z,56.07
2022-11-02T03:10:27.195Z,56.83
2022-11-02T03:13:04.597Z,56.37
2022-11-02T03:15:39.539Z,56.20
2022-11-02T03:18:18.564Z,58.27
2022-11-02T03:20:57.151Z,57.97
2022-11-02T03:23:31.465Z,59.47
2022-11-02T03:26:06.548Z,59.13
2022-11-02T03:28:54.660Z,59.50
2022-11-02T03:31:35.033Z,62.50
2022-11-02T03:34:14.796Z,61.50
2022-11-02T03:36:48.015Z,61.93
2022-11-02T03:39:21.197Z,63.27
2022-11-02T03:41:51.232Z,62.30
2022-11-02T03:44:24.968Z,63.97
2022-11-02T03:47:01.111Z,64.53
2022-11-02T03:49:32.038Z,63.90
2022-11-02T03:52:05.783Z,64.93
2022-11-02T03:54:43.778Z,67.57
2022-11-02T03:57:18.778Z,67.80
2022-11-02T03:59:47.251Z,68.43
2022-11-02T04:02:18.447Z,69.63
2022-11-02T04:04:51.850Z,70.93
2022-11-02T04:07:26.706Z,70.13
2022-11-02T04:09:54.789Z,72.27
2022-11-02T04:12:40.160Z,74.83
2022-11-02T04:15:10.664Z,76.03
2022-11-02T04:17:59.701Z,74.80
2022-11-02T04:20:28.192Z,77.03
2022-11-02T04:23:10.025Z,76.97
2022-11-02T04:25:38.148Z,77.07
2022-11-02T04:28:15.682Z,77.97
2022-11-02T04:30:50.409Z,77.13
2022-11-02T04:33:32.883Z,76.40
2022-11-02T04:36:09.930Z,77.03
2022-11-02T04:38:42.602Z,74.80
2022-11-02T04:41:43.104Z,74.80
2022-11-02T04:44:29.390Z,75.00
2022-11-02T04:47:02.666Z,76.47
2022-11-02T04:49:34.738Z,74.67
2022-11-02T04:52:04.350Z,76.10
2022-11-02T04:54:35.004Z,74.13
2022-11-02T04:57:05.352Z,74.73
2022-11-02T04:59:34.424Z,75.17
2022-11-02T05:02:02.581Z,75.60
2022-11-02T05:04:30.740Z,75.20
2022-11-02T05:07:01.800Z,76.20
2022-11-02T05:09:32.434Z,77.30
2022-11-02T05:12:01.993Z,76.63
2022-11-02T05:14:30.049Z,75.73
2022-11-02T05:16:58.808Z,76.03
2022-11-02T05:19:26.949Z,76.00
2022-11-02T05:21:55.221Z,77.40
2022-11-02T05:24:25.834Z,75.43
2022-11-02T05:26:54.092Z,78.13
2022-11-02T05:29:24.832Z,77.43
2022-11-02T05:31:53.823Z,78.77
2022-11-02T05:34:22.201Z,80.10
2022-11-02T05:36:50.890Z,81.87
2022-11-02T05:39:18.968Z,85.00
2022-11-02T05:41:48.861Z,82.13
2022-11-02T05:44:16.831Z,84.50
2022-11-02T05:46:47.179Z,85.67
2022-11-02T05:49:15.112Z,86.43
2022-11-02T05:51:45.046Z,83.23
2022-11-02T05:54:12.990Z,84.90
2022-11-02T05:56:41.109Z,86.17
2022-11-02T05:59:10.417Z,85.13
2022-11-02T06:01:39.122Z,85.63
2022-11-02T06:04:07.410Z,84.73
2022-11-02T06:06:35.354Z,85.17
2022-11-02T06:09:07.123Z,85.37
2022-11-02T06:11:35.707Z,84.43
2022-11-02T06:14:04.407Z,86.37
2022-11-02T06:16:33.806Z,85.80
2022-11-02T06:19:01.813Z,86.10
2022-11-02T06:21:29.852Z,85.47
2022-11-02T06:23:59.022Z,86.47
2022-11-02T06:26:27.139Z,85.33
2022-11-02T06:28:55.077Z,86.77
2022-11-02T06:31:23.155Z,85.53
2022-11-02T06:33:52.455Z,84.67
2022-11-02T06:36:20.426Z,85.10
2022-11-02T06:38:48.426Z,83.43
2022-11-02T06:41:16.395Z,81.50
2022-11-02T06:43:44.468Z,80.90
2022-11-02T06:46:12.409Z,80.67
2022-11-02T06:48:40.341Z,81.93
2022-11-02T06:51:09.805Z,82.17
2022-11-02T06:53:37.775Z,80.37
2022-11-02T06:56:06.154Z,80.57
2022-11-02T06:58:34.083Z,82.80
2022-11-02T07:01:03.925Z,79.50
2022-11-02T07:03:32.463Z,80.80
2022-11-02T07:06:00.765Z,80.53
2022-11-02T07:08:30.096Z,79.67
2022-11-02T07:10:58.891Z,80.50
2022-11-02T07:13:26.994Z,80.33
2022-11-02T07:15:55.920Z,82.57
2022-11-02T07:18:24.098Z,80.93
2022-11-02T07:20:52.342Z,80.97
2022-11-02T07:23:23.858Z,80.63
2022-11-02T07:25:53.420Z,79.77
2022-11-02T07:28:21.456Z,77.63
2022-11-02T07:30:50.349Z,80.43
2022-11-02T07:33:18.348Z,79.90
2022-11-02T07:35:46.311Z,81.03
2022-11-02T07:38:14.284Z,81.80
2022-11-02T07:40:42.386Z,82.73
2022-11-02T07:43:11.865Z,81.97
2022-11-02T07:45:48.207Z,81.23
2022-11-02T07:48:16.187Z,80.37
2022-11-02T07:50:44.219Z,81.13
2022-11-02T07:53:12.305Z,80.23
2022-11-02T07:55:40.759Z,76.00
2022-11-02T07:58:14.122Z,75.87
2022-11-02T08:00:42.533Z,74.17
2022-11-02T08:03:12.760Z,71.20
2022-11-02T08:05:42.569Z,69.47
2022-11-02T08:08:13.788Z,67.07
2022-11-02T08:10:42.679Z,64.77
2022-11-02T08:13:13.482Z,63.77
2022-11-02T08:15:41.530Z,62.70
2022-11-02T08:18:14.386Z,60.03
2022-11-02T08:20:42.991Z,58.70
2022-11-02T08:23:11.799Z,55.30
2022-11-02T08:25:41.258Z,56.30
2022-11-02T08:28:13.332Z,55.73
2022-11-02T08:30:42.714Z,54.37
2022-11-02T08:33:15.588Z,51.83
2022-11-02T08:35:44.896Z,54.80
2022-11-02T08:38:13.759Z,54.23
2022-11-02T08:40:42.106Z,52.50
2022-11-02T08:43:11.663Z,48.73
2022-11-02T08:48:30.416Z,47.53
2022-11-02T08:50:58.661Z,47.43
2022-11-02T08:53:26.811Z,46.37
2022-11-02T08:55:58.261Z,43.30
2022-11-02T08:58:26.746Z,43.27
2022-11-02T09:00:55.593Z,42.47
2022-11-02T09:03:26.789Z,40.47
2022-11-02T09:06:00.907Z,41.40
2022-11-02T09:08:29.476Z,42.30
2022-11-02T09:11:00.819Z,38.60
2022-11-02T09:13:29.431Z,37.70
2022-11-02T09:15:58.997Z,39.27
2022-11-02T09:18:27.552Z,38.43
2022-11-02T09:20:55.575Z,37.97
2022-11-02T09:23:25.231Z,40.17
2022-11-02T09:25:53.677Z,38.37
2022-11-02T09:28:22.221Z,38.40
2022-11-02T09:30:50.292Z,37.70
2022-11-02T09:33:18.485Z,36.30
2022-11-02T09:35:47.801Z,33.83
2022-11-02T09:38:18.486Z,36.30
2022-11-02T09:40:55.708Z,34.33
2022-11-02T09:43:37.542Z,33.97
2022-11-02T09:46:09.028Z,31.17
2022-11-02T09:48:40.864Z,30.87
2022-11-02T09:51:13.127Z,28.77
2022-11-02T09:53:49.730Z,28.07
2022-11-02T09:56:20.907Z,26.93
2022-11-02T09:58:54.541Z,21.73
2022-11-02T10:01:43.362Z,20.63
2022-11-02T10:04:35.470Z,15.63
2022-11-02T10:07:10.303Z,17.73
2022-11-02T10:09:47.955Z,19.27
2022-11-02T10:12:27.937Z,20.13
2022-11-02T10:15:04.143Z,18.55
2022-11-02T10:17:37.475Z,18.88
2022-11-02T10:20:18.900Z,19.52
2022-11-02T10:22:48.727Z,19.17
2022-11-02T10:25:18.391Z,19.40
2022-11-02T10:27:54.845Z,22.00
2022-11-02T10:30:22.833Z,19.40
2022-11-02T10:32:53.886Z,20.90
2022-11-02T10:35:41.040Z,19.67
2022-11-02T10:38:25.992Z,20.00
2022-11-02T10:41:16.109Z,19.55
2022-11-02T10:44:04.412Z,19.77
2022-11-02T10:46:47.705Z,18.65
2022-11-02T10:49:31.001Z,21.75
2022-11-02T10:51:59.054Z,21.75
2022-11-02T10:54:31.010Z,20.27
2022-11-02T10:57:01.672Z,19.58
2022-11-02T10:59:31.103Z,19.15
2022-11-02T11:02:11.035Z,20.63
2022-11-02T11:04:39.077Z,19.90
2022-11-02T11:07:09.977Z,19.92
2022-11-02T11:09:47.253Z,19.50
2022-11-02T11:12:20.917Z,17.90
2022-11-02T11:20:35.445Z,15.90
2022-11-02T11:23:25.396Z,15.30
2022-11-02T11:25:59.389Z,12.30
2022-11-02T11:28:30.667Z,11.38
2022-11-02T11:31:12.199Z,10.13
2022-11-02T11:33:49.551Z,9.88
2022-11-02T11:36:28.973Z,8.75
2022-11-02T11:39:00.041Z,8.55
2022-11-02T11:41:29.111Z,10.75
2022-11-02T11:43:57.311Z,8.18
2022-11-02T11:46:40.487Z,7.55
2022-11-02T11:49:31.105Z,6.28
2022-11-02T11:52:05.348Z,7.38
2022-11-02T11:54:34.225Z,6.93
2022-11-02T11:57:22.468Z,7.10
2022-11-02T11:59:53.133Z,6.43
2022-11-02T12:02:25.610Z,5.78
2022-11-02T12:05:00.757Z,6.72
2022-11-02T12:07:46.848Z,6.50
2022-11-02T12:10:23.769Z,6.28
2022-11-02T12:13:06.465Z,5.70
2022-11-02T12:15:55.554Z,6.15
2022-11-02T12:18:45.970Z,7.18
2022-11-02T12:21:28.376Z,5.35
2022-11-02T12:24:19.371Z,5.85
2022-11-02T12:26:57.475Z,6.10
2022-11-02T12:29:53.633Z,5.93
2022-11-02T12:32:34.377Z,6.13
2022-11-02T12:35:32.819Z,6.15
2022-11-02T12:38:24.439Z,5.63
2022-11-02T12:41:03.099Z,5.80
2022-11-02T12:43:39.869Z,6.13
2022-11-02T12:46:20.943Z,6.05
2022-11-02T12:48:59.583Z,5.90
2022-11-02T12:51:34.399Z,5.65
2022-11-02T12:54:11.339Z,5.82
2022-11-02T12:56:46.655Z,6.35
2022-11-02T12:59:20.978Z,5.75
2022-11-02T13:01:53.124Z,5.93
2022-11-02T13:04:28.130Z,5.85
2022-11-02T13:07:04.465Z,6.15
2022-11-02T13:09:36.889Z,5.50
2022-11-02T13:12:09.515Z,6.40
2022-11-02T13:14:41.702Z,6.03
2022-11-02T13:17:15.971Z,4.85
2022-11-02T13:19:48.716Z,6.43
2022-11-02T13:22:21.470Z,6.65
2022-11-02T13:24:54.729Z,6.07
2022-11-02T13:27:38.582Z,7.18
2022-11-02T13:30:15.536Z,6.93
2022-11-02T13:32:46.676Z,7.10
2022-11-02T13:35:20.037Z,6.57
2022-11-02T13:37:54.588Z,7.18
2022-11-02T13:40:27.540Z,7.03
2022-11-02T13:43:27.627Z,6.45
2022-11-02T13:46:24.869Z,7.10
2022-11-02T13:48:58.931Z,7.60
2022-11-02T13:51:36.020Z,7.43
2022-11-02T13:54:13.987Z,7.32
2022-11-02T13:56:42.733Z,7.65
2022-11-02T13:59:19.553Z,9.18
2022-11-02T14:01:48.038Z,7.32
2022-11-02T14:04:17.348Z,7.30
2022-11-02T14:06:54.219Z,6.70
2022-11-02T14:09:29.241Z,6.72
2022-11-02T14:12:29.568Z,6.45
2022-11-02T14:15:42.410Z,6.93
2022-11-02T14:18:31.193Z,7.13
2022-11-02T14:21:00.368Z,7.82
2022-11-02T14:23:39.104Z,7.35
2022-11-02T14:26:34.647Z,8.23
2022-11-02T14:29:26.779Z,7.53
2022-11-02T14:32:03.580Z,7.43
2022-11-02T14:34:50.519Z,8.63
2022-11-02T14:37:50.208Z,7.85
2022-11-02T14:40:35.619Z,8.25
2022-11-02T14:43:31.664Z,9.40
2022-11-02T14:46:09.706Z,9.73
2022-11-02T14:48:47.205Z,10.20
2022-11-02T14:51:20.560Z,10.35
2022-11-02T14:53:50.792Z,9.13
2022-11-02T14:56:18.872Z,10.02
2022-11-02T14:58:54.979Z,9.45
2022-11-02T15:01:23.799Z,9.70
2022-11-02T15:03:52.529Z,8.52
2022-11-02T15:06:24.123Z,8.48
2022-11-02T15:08:55.413Z,10.00
2022-11-02T15:11:46.132Z,9.13
2022-11-02T15:14:55.135Z,9.23
2022-11-02T15:17:52.771Z,9.00
2022-11-02T15:20:32.694Z,9.43
2022-11-02T15:23:28.709Z,9.50
2022-11-02T15:25:59.918Z,9.52
2022-11-02T15:28:30.777Z,11.35
2022-11-02T15:31:04.000Z,11.20
2022-11-02T15:33:38.201Z,10.98
2022-11-02T15:36:09.213Z,11.95
2022-11-02T15:38:40.289Z,10.60
2022-11-02T15:41:22.965Z,11.60
2022-11-02T15:44:07.765Z,12.45
2022-11-02T15:46:53.676Z,12.45
2022-11-02T15:49:38.221Z,12.25
2022-11-02T15:52:18.585Z,13.02
2022-11-02T15:54:58.312Z,12.73
2022-11-02T15:57:37.418Z,13.15
2022-11-02T16:00:15.974Z,13.55
2022-11-02T16:02:48.138Z,14.02
2022-11-02T16:05:20.920Z,14.00
2022-11-02T16:08:10.021Z,14.23
2022-11-02T16:10:39.138Z,14.40
2022-11-02T16:13:16.980Z,15.10
2022-11-02T16:15:46.530Z,14.47
2022-11-02T16:18:27.638Z,15.27
2022-11-02T16:20:57.376Z,14.80
2022-11-02T16:23:28.051Z,16.40
2022-11-02T16:25:58.544Z,15.93
2022-11-02T16:28:27.957Z,15.95
2022-11-02T16:31:10.046Z,15.83
2022-11-02T16:33:45.461Z,16.37
2022-11-02T16:36:16.981Z,18.80
2022-11-02T16:38:49.560Z,17.80
2022-11-02T16:41:18.033Z,17.87
2022-11-02T16:43:48.062Z,17.17
2022-11-02T16:46:18.102Z,17.97
2022-11-02T16:49:12.877Z,17.60
2022-11-02T16:51:41.391Z,17.07
2022-11-02T16:54:29.608Z,18.47
2022-11-02T16:57:04.946Z,18.80
2022-11-02T16:59:37.079Z,18.10
2022-11-02T17:02:06.513Z,19.20
2022-11-02T17:04:42.249Z,18.10
2022-11-02T17:07:14.056Z,18.90
2022-11-02T17:09:42.305Z,18.73
2022-11-02T17:12:15.299Z,19.27
2022-11-02T17:14:45.618Z,19.00
2022-11-02T17:17:40.184Z,19.40
2022-11-02T17:20:22.130Z,18.93
2022-11-02T17:22:58.923Z,19.53
2022-11-02T17:25:29.319Z,19.83
2022-11-02T17:27:58.856Z,20.13
2022-11-02T17:30:45.550Z,19.30
2022-11-02T17:33:28.871Z,19.80
2022-11-02T17:36:06.407Z,19.13
2022-11-02T17:38:35.228Z,19.53
2022-11-02T17:41:23.480Z,20.53
2022-11-02T17:43:50.672Z,20.37
2022-11-02T17:46:18.692Z,20.43
2022-11-02T17:48:46.668Z,20.47
2022-11-02T17:51:16.377Z,20.40
2022-11-02T17:53:44.397Z,22.43
2022-11-02T17:56:12.428Z,20.73
2022-11-02T17:58:40.755Z,21.10
2022-11-02T18:01:11.686Z,22.27
2022-11-02T18:03:40.009Z,22.80
2022-11-02T18:06:08.446Z,23.47
2022-11-02T18:08:51.888Z,23.83
2022-11-02T18:11:25.785Z,22.87
2022-11-02T18:13:54.494Z,24.20
2022-11-02T18:16:22.538Z,24.47
2022-11-02T18:18:50.516Z,24.03
2022-11-02T18:21:18.528Z,23.97
2022-11-02T18:23:47.921Z,23.97
2022-11-02T18:26:16.222Z,25.07
2022-11-02T18:28:44.239Z,25.63
2022-11-02T18:31:12.210Z,25.07
2022-11-02T18:33:40.227Z,25.63
2022-11-02T18:36:10.267Z,26.43
2022-11-02T18:38:38.672Z,27.03
2022-11-02T18:41:23.111Z,26.67
2022-11-02T18:43:51.055Z,26.60
2022-11-02T18:46:19.263Z,27.67
2022-11-02T18:48:47.471Z,27.80
2022-11-02T18:51:15.596Z,28.60
2022-11-02T18:53:43.587Z,29.13
2022-11-02T18:56:13.316Z,30.00
2022-11-02T18:58:41.295Z,29.93
2022-11-02T19:01:10.614Z,30.00
2022-11-02T19:03:38.913Z,31.40
2022-11-02T19:06:25.073Z,31.53
2022-11-02T19:09:10.407Z,32.47
2022-11-02T19:11:39.888Z,32.93
2022-11-02T19:14:08.596Z,32.33
2022-11-02T19:16:37.077Z,33.20
2022-11-02T19:19:05.420Z,33.10
2022-11-02T19:21:33.428Z,33.57
2022-11-02T19:24:01.621Z,32.87
2022-11-02T19:26:29.593Z,31.53
2022-11-02T19:29:03.055Z,33.67
2022-11-02T19:31:36.426Z,32.60
2022-11-02T19:34:04.546Z,33.60
2022-11-02T19:36:32.836Z,33.23
2022-11-02T19:39:03.392Z,35.77
2022-11-02T19:41:32.159Z,35.97
2022-11-02T19:44:01.647Z,34.97
2022-11-02T19:46:29.762Z,34.73
2022-11-02T19:48:58.400Z,35.60
2022-11-02T19:51:28.379Z,36.27
2022-11-02T19:53:58.316Z,34.90
2022-11-02T19:56:27.646Z,36.97
2022-11-02T19:58:56.955Z,36.93
2022-11-02T20:01:28.179Z,36.83
2022-11-02T20:03:57.104Z,37.97
2022-11-02T20:06:27.293Z,37.30
2022-11-02T20:08:57.045Z,36.93
2022-11-02T20:11:27.207Z,37.80
2022-11-02T20:13:56.960Z,39.40
2022-11-02T20:16:26.953Z,40.00
2022-11-02T20:18:59.096Z,37.83
2022-11-02T20:21:33.481Z,38.00
2022-11-02T20:24:05.603Z,39.80
2022-11-02T20:26:36.468Z,39.67
2022-11-02T20:29:06.918Z,39.07
2022-11-02T20:31:38.051Z,40.00
2022-11-02T20:34:09.077Z,39.40
2022-11-02T20:36:37.123Z,39.47
2022-11-02T20:39:07.584Z,39.97
2022-11-02T20:41:35.625Z,39.53
2022-11-02T20:44:03.916Z,40.93
2022-11-02T20:46:41.974Z,40.93
2022-11-02T20:49:29.319Z,40.63
2022-11-02T20:51:59.893Z,39.20
2022-11-02T20:54:29.877Z,39.03
2022-11-02T20:56:58.191Z,38.77
2022-11-02T20:59:26.361Z,37.90
2022-11-02T21:01:54.483Z,36.13
2022-11-02T21:04:23.876Z,35.47
2022-11-02T21:06:52.136Z,34.33
2022-11-02T21:09:20.646Z,33.37
2022-11-02T21:12:06.390Z,34.27
2022-11-02T21:14:34.511Z,33.80
2022-11-02T21:17:03.241Z,33.57
2022-11-02T21:19:32.615Z,34.47
2022-11-02T21:22:00.837Z,34.60
2022-11-02T21:24:29.643Z,33.80
2022-11-02T21:26:58.041Z,36.13
2022-11-02T21:29:26.035Z,35.30
2022-11-02T21:31:54.055Z,36.30
2022-11-02T21:34:22.045Z,36.77
2022-11-02T21:36:51.499Z,36.40
2022-11-02T21:39:19.543Z,36.67
2022-11-02T21:41:48.255Z,37.33
2022-11-02T21:44:16.308Z,36.60
2022-11-02T21:46:44.367Z,37.80
2022-11-02T21:49:13.100Z,37.00
2022-11-02T21:51:42.624Z,37.17
2022-11-02T21:54:12.009Z,37.03
2022-11-02T21:56:40.092Z,37.27
2022-11-02T21:59:09.499Z,37.00
2022-11-02T22:01:46.873Z,41.07
2022-11-02T22:04:17.288Z,39.10
2022-11-02T22:06:45.408Z,40.30
2022-11-02T22:09:14.987Z,41.17
2022-11-02T22:11:44.938Z,41.50
2022-11-02T22:14:13.955Z,42.33
2022-11-02T22:16:43.799Z,42.93
2022-11-02T22:19:13.572Z,44.43
2022-11-02T22:21:43.147Z,45.30
2022-11-02T22:24:11.363Z,47.57
2022-11-02T22:26:40.963Z,47.70
2022-11-02T22:29:09.580Z,49.67
2022-11-02T22:31:39.704Z,50.10
2022-11-02T22:34:09.151Z,50.20
2022-11-02T22:36:38.429Z,52.63
2022-11-02T22:39:07.380Z,52.27
2022-11-02T22:41:36.652Z,54.00
2022-11-02T22:44:07.983Z,52.10
2022-11-02T22:46:37.831Z,50.57
2022-11-02T22:49:06.790Z,53.83
2022-11-02T22:51:37.083Z,50.97
2022-11-02T22:54:06.944Z,53.27
2022-11-02T22:56:36.011Z,51.77
2022-11-02T22:59:06.287Z,53.87
2022-11-02T23:01:34.660Z,51.93
2022-11-02T23:04:03.114Z,53.20
2022-11-02T23:06:31.352Z,51.53
2022-11-02T23:09:00.335Z,52.60
2022-11-02T23:11:29.760Z,53.20
2022-11-02T23:13:59.750Z,54.00
2022-11-02T23:16:30.794Z,57.43
2022-11-02T23:19:25.218Z,56.53
2022-11-02T23:22:09.885Z,58.30
2022-11-02T23:24:55.192Z,60.57
2022-11-02T23:27:23.268Z,59.57
2022-11-02T23:30:09.109Z,60.23
2022-11-02T23:32:39.186Z,62.53
2022-11-02T23:35:25.488Z,61.30
2022-11-02T23:38:03.296Z,62.70
2022-11-02T23:40:31.889Z,64.67
2022-11-02T23:42:59.873Z,67.53
2022-11-02T23:45:27.855Z,65.70
2022-11-02T23:48:01.373Z,64.90
2022-11-02T23:50:54.093Z,65.47
2022-11-02T23:53:41.278Z,65.97
2022-11-02T23:56:33.466Z,67.03
2022-11-02T23:59:07.815Z,67.60
